sensor_id;sensor_type;location;lat;lon;timestamp;temperature;humidity
39017;DHT22;24784;45.582;5.276;2023-02-27T00:02:24;2.00;94.40
39017;DHT22;24784;45.582;5.276;2023-02-27T00:04:50;2.00;94.60
39017;DHT22;24784;45.582;5.276;2023-02-27T00:07:16;1.90;94.60
39017;DHT22;24784;45.582;5.276;2023-02-27T00:09:42;1.90;94.50
39017;DHT22;24784;45.582;5.276;2023-02-27T00:12:08;1.90;95.00
39017;DHT22;24784;45.582;5.276;2023-02-27T00:14:34;1.80;95.30
39017;DHT22;24784;45.582;5.276;2023-02-27T00:17:00;1.80;95.20
39017;DHT22;24784;45.582;5.276;2023-02-27T00:19:26;1.80;95.10
39017;DHT22;24784;45.582;5.276;2023-02-27T00:21:51;1.70;95.20
39017;DHT22;24784;45.582;5.276;2023-02-27T00:24:17;1.80;95.20
39017;DHT22;24784;45.582;5.276;2023-02-27T00:26:43;1.60;95.50
39017;DHT22;24784;45.582;5.276;2023-02-27T00:29:09;1.70;95.40
39017;DHT22;24784;45.582;5.276;2023-02-27T00:31:35;1.70;95.70
39017;DHT22;24784;45.582;5.276;2023-02-27T00:34:01;1.50;95.90
39017;DHT22;24784;45.582;5.276;2023-02-27T00:36:28;1.70;95.60
39017;DHT22;24784;45.582;5.276;2023-02-27T00:38:54;1.70;95.30
39017;DHT22;24784;45.582;5.276;2023-02-27T00:41:20;1.70;95.50
39017;DHT22;24784;45.582;5.276;2023-02-27T00:43:45;1.60;95.50
39017;DHT22;24784;45.582;5.276;2023-02-27T00:46:11;1.70;95.80
39017;DHT22;24784;45.582;5.276;2023-02-27T00:48:37;1.60;95.90
39017;DHT22;24784;45.582;5.276;2023-02-27T00:51:03;1.50;96.30
39017;DHT22;24784;45.582;5.276;2023-02-27T00:53:28;1.60;95.90
39017;DHT22;24784;45.582;5.276;2023-02-27T00:55:54;1.70;96.00
39017;DHT22;24784;45.582;5.276;2023-02-27T00:58:20;1.70;95.90
39017;DHT22;24784;45.582;5.276;2023-02-27T01:00:45;1.60;96.30
39017;DHT22;24784;45.582;5.276;2023-02-27T01:03:11;1.70;96.30
39017;DHT22;24784;45.582;5.276;2023-02-27T01:05:37;1.70;96.30
39017;DHT22;24784;45.582;5.276;2023-02-27T01:08:03;1.70;96.00
39017;DHT22;24784;45.582;5.276;2023-02-27T01:10:29;1.70;95.70
39017;DHT22;24784;45.582;5.276;2023-02-27T01:12:55;1.70;96.30
39017;DHT22;24784;45.582;5.276;2023-02-27T01:15:20;1.70;95.90
39017;DHT22;24784;45.582;5.276;2023-02-27T01:17:46;1.60;96.40
39017;DHT22;24784;45.582;5.276;2023-02-27T01:20:14;1.50;96.60
39017;DHT22;24784;45.582;5.276;2023-02-27T01:22:40;1.50;96.60
39017;DHT22;24784;45.582;5.276;2023-02-27T01:25:06;1.60;96.90
39017;DHT22;24784;45.582;5.276;2023-02-27T01:27:32;1.50;97.00
39017;DHT22;24784;45.582;5.276;2023-02-27T01:29:58;1.40;97.00
39017;DHT22;24784;45.582;5.276;2023-02-27T01:32:24;1.60;96.70
39017;DHT22;24784;45.582;5.276;2023-02-27T01:34:50;1.60;96.70
39017;DHT22;24784;45.582;5.276;2023-02-27T01:37:16;1.50;96.60
39017;DHT22;24784;45.582;5.276;2023-02-27T01:39:42;1.60;96.70
39017;DHT22;24784;45.582;5.276;2023-02-27T01:42:25;1.70;96.80
39017;DHT22;24784;45.582;5.276;2023-02-27T01:47:55;1.70;95.60
39017;DHT22;24784;45.582;5.276;2023-02-27T01:50:23;1.70;95.40
39017;DHT22;24784;45.582;5.276;2023-02-27T01:52:53;1.80;95.70
39017;DHT22;24784;45.582;5.276;2023-02-27T01:55:20;1.80;95.40
39017;DHT22;24784;45.582;5.276;2023-02-27T01:57:48;1.80;95.60
39017;DHT22;24784;45.582;5.276;2023-02-27T02:00:15;1.80;95.30
39017;DHT22;24784;45.582;5.276;2023-02-27T02:02:49;1.80;95.00
39017;DHT22;24784;45.582;5.276;2023-02-27T02:05:16;1.70;95.80
39017;DHT22;24784;45.582;5.276;2023-02-27T02:07:43;1.70;95.90
39017;DHT22;24784;45.582;5.276;2023-02-27T02:10:10;1.70;95.50
39017;DHT22;24784;45.582;5.276;2023-02-27T02:12:37;1.70;95.30
39017;DHT22;24784;45.582;5.276;2023-02-27T02:15:05;1.80;95.20
39017;DHT22;24784;45.582;5.276;2023-02-27T02:17:56;1.80;95.00
39017;DHT22;24784;45.582;5.276;2023-02-27T02:26:28;1.80;94.70
39017;DHT22;24784;45.582;5.276;2023-02-27T02:45:54;1.80;94.80
39017;DHT22;24784;45.582;5.276;2023-02-27T02:48:35;1.90;94.50
39017;DHT22;24784;45.582;5.276;2023-02-27T02:54:04;1.70;93.90
39017;DHT22;24784;45.582;5.276;2023-02-27T02:56:40;1.80;94.00
39017;DHT22;24784;45.582;5.276;2023-02-27T03:02:17;1.80;93.90
39017;DHT22;24784;45.582;5.276;2023-02-27T03:04:45;1.70;93.70
39017;DHT22;24784;45.582;5.276;2023-02-27T03:09:55;1.70;93.50
39017;DHT22;24784;45.582;5.276;2023-02-27T03:12:23;1.80;93.80
39017;DHT22;24784;45.582;5.276;2023-02-27T03:15:05;1.80;93.90
39017;DHT22;24784;45.582;5.276;2023-02-27T03:17:53;1.80;94.10
39017;DHT22;24784;45.582;5.276;2023-02-27T03:20:24;1.80;94.10
39017;DHT22;24784;45.582;5.276;2023-02-27T03:22:53;1.80;94.10
39017;DHT22;24784;45.582;5.276;2023-02-27T03:25:21;1.80;93.80
39017;DHT22;24784;45.582;5.276;2023-02-27T03:28:00;1.70;94.10
39017;DHT22;24784;45.582;5.276;2023-02-27T03:30:36;1.70;93.90
39017;DHT22;24784;45.582;5.276;2023-02-27T03:36:06;1.60;94.20
39017;DHT22;24784;45.582;5.276;2023-02-27T03:38:44;1.50;94.00
39017;DHT22;24784;45.582;5.276;2023-02-27T03:41:14;1.50;94.10
39017;DHT22;24784;45.582;5.276;2023-02-27T03:44:13;1.50;94.00
39017;DHT22;24784;45.582;5.276;2023-02-27T03:46:44;1.40;93.80
39017;DHT22;24784;45.582;5.276;2023-02-27T03:49:10;1.50;94.20
39017;DHT22;24784;45.582;5.276;2023-02-27T03:51:36;1.50;94.10
39017;DHT22;24784;45.582;5.276;2023-02-27T03:54:17;1.50;93.90
39017;DHT22;24784;45.582;5.276;2023-02-27T03:56:51;1.40;94.00
39017;DHT22;24784;45.582;5.276;2023-02-27T03:59:22;1.30;94.20
39017;DHT22;24784;45.582;5.276;2023-02-27T04:01:48;1.40;94.40
39017;DHT22;24784;45.582;5.276;2023-02-27T04:04:16;1.40;94.30
39017;DHT22;24784;45.582;5.276;2023-02-27T04:06:56;1.40;94.40
39017;DHT22;24784;45.582;5.276;2023-02-27T04:15:54;1.30;93.90
39017;DHT22;24784;45.582;5.276;2023-02-27T04:22:16;1.30;94.10
39017;DHT22;24784;45.582;5.276;2023-02-27T04:27:55;1.10;93.60
39017;DHT22;24784;45.582;5.276;2023-02-27T04:30:37;1.10;94.20
39017;DHT22;24784;45.582;5.276;2023-02-27T04:35:57;1.10;94.30
39017;DHT22;24784;45.582;5.276;2023-02-27T04:38:33;1.10;94.40
39017;DHT22;24784;45.582;5.276;2023-02-27T04:41:13;0.90;94.30
39017;DHT22;24784;45.582;5.276;2023-02-27T04:43:43;1.00;94.40
39017;DHT22;24784;45.582;5.276;2023-02-27T04:46:12;0.90;94.30
39017;DHT22;24784;45.582;5.276;2023-02-27T04:48:51;1.00;94.50
39017;DHT22;24784;45.582;5.276;2023-02-27T04:51:23;1.00;94.20
39017;DHT22;24784;45.582;5.276;2023-02-27T04:53:59;1.00;94.30
39017;DHT22;24784;45.582;5.276;2023-02-27T04:56:33;1.10;94.40
39017;DHT22;24784;45.582;5.276;2023-02-27T04:59:07;0.90;94.20
39017;DHT22;24784;45.582;5.276;2023-02-27T05:01:38;0.90;95.00
39017;DHT22;24784;45.582;5.276;2023-02-27T05:04:07;0.90;94.80
39017;DHT22;24784;45.582;5.276;2023-02-27T05:06:39;1.00;94.80
39017;DHT22;24784;45.582;5.276;2023-02-27T05:09:37;0.90;94.80
39017;DHT22;24784;45.582;5.276;2023-02-27T05:15:02;0.90;94.80
39017;DHT22;24784;45.582;5.276;2023-02-27T05:20:24;0.70;94.80
39017;DHT22;24784;45.582;5.276;2023-02-27T05:26:04;0.50;94.90
39017;DHT22;24784;45.582;5.276;2023-02-27T05:28:36;0.50;95.30
39017;DHT22;24784;45.582;5.276;2023-02-27T05:31:22;0.50;95.20
39017;DHT22;24784;45.582;5.276;2023-02-27T05:34:04;0.40;95.10
39017;DHT22;24784;45.582;5.276;2023-02-27T05:36:46;0.40;95.20
39017;DHT22;24784;45.582;5.276;2023-02-27T05:39:18;0.30;95.50
39017;DHT22;24784;45.582;5.276;2023-02-27T05:42:16;0.30;95.60
39017;DHT22;24784;45.582;5.276;2023-02-27T05:44:50;0.40;99.90
39017;DHT22;24784;45.582;5.276;2023-02-27T05:47:21;0.40;99.90
39017;DHT22;24784;45.582;5.276;2023-02-27T05:49:58;0.40;99.90
39017;DHT22;24784;45.582;5.276;2023-02-27T05:52:27;0.90;96.60
39017;DHT22;24784;45.582;5.276;2023-02-27T05:57:35;0.00;96.10
39017;DHT22;24784;45.582;5.276;2023-02-27T06:00:12;0.20;96.30
39017;DHT22;24784;45.582;5.276;2023-02-27T06:02:39;0.00;96.60
39017;DHT22;24784;45.582;5.276;2023-02-27T06:05:05;-0.10;96.10
39017;DHT22;24784;45.582;5.276;2023-02-27T06:07:33;-0.10;96.30
39017;DHT22;24784;45.582;5.276;2023-02-27T06:09:59;0.00;96.30
39017;DHT22;24784;45.582;5.276;2023-02-27T06:12:25;0.10;96.50
39017;DHT22;24784;45.582;5.276;2023-02-27T06:14:51;0.00;96.40
39017;DHT22;24784;45.582;5.276;2023-02-27T06:17:17;-0.20;96.30
39017;DHT22;24784;45.582;5.276;2023-02-27T06:19:43;-0.10;96.60
39017;DHT22;24784;45.582;5.276;2023-02-27T06:22:09;-0.10;96.30
39017;DHT22;24784;45.582;5.276;2023-02-27T06:24:35;0.00;96.70
39017;DHT22;24784;45.582;5.276;2023-02-27T06:27:01;-0.20;97.00
39017;DHT22;24784;45.582;5.276;2023-02-27T06:29:26;-0.20;97.00
39017;DHT22;24784;45.582;5.276;2023-02-27T06:31:52;-0.20;97.50
39017;DHT22;24784;45.582;5.276;2023-02-27T06:34:18;-0.10;97.00
39017;DHT22;24784;45.582;5.276;2023-02-27T06:36:43;-0.10;97.20
39017;DHT22;24784;45.582;5.276;2023-02-27T06:39:09;-0.10;97.20
39017;DHT22;24784;45.582;5.276;2023-02-27T06:41:35;0.00;97.50
39017;DHT22;24784;45.582;5.276;2023-02-27T06:44:01;0.00;97.40
39017;DHT22;24784;45.582;5.276;2023-02-27T06:46:26;-0.20;97.50
39017;DHT22;24784;45.582;5.276;2023-02-27T06:48:52;-0.10;97.80
39017;DHT22;24784;45.582;5.276;2023-02-27T06:51:18;-0.10;97.70
39017;DHT22;24784;45.582;5.276;2023-02-27T06:53:43;0.00;97.90
39017;DHT22;24784;45.582;5.276;2023-02-27T06:56:09;-0.20;97.80
39017;DHT22;24784;45.582;5.276;2023-02-27T06:58:35;-0.10;97.70
39017;DHT22;24784;45.582;5.276;2023-02-27T07:01:01;0.00;98.10
39017;DHT22;24784;45.582;5.276;2023-02-27T07:03:27;-0.10;97.80
39017;DHT22;24784;45.582;5.276;2023-02-27T07:05:52;0.00;97.80
39017;DHT22;24784;45.582;5.276;2023-02-27T07:08:18;0.10;97.70
39017;DHT22;24784;45.582;5.276;2023-02-27T07:10:44;0.00;98.10
39017;DHT22;24784;45.582;5.276;2023-02-27T07:13:15;0.00;97.60
39017;DHT22;24784;45.582;5.276;2023-02-27T07:15:41;0.00;97.80
39017;DHT22;24784;45.582;5.276;2023-02-27T07:18:07;0.00;98.10
39017;DHT22;24784;45.582;5.276;2023-02-27T07:20:33;0.00;98.10
39017;DHT22;24784;45.582;5.276;2023-02-27T07:22:59;0.10;98.00
39017;DHT22;24784;45.582;5.276;2023-02-27T07:25:24;0.00;97.60
39017;DHT22;24784;45.582;5.276;2023-02-27T07:27:50;0.00;97.10
39017;DHT22;24784;45.582;5.276;2023-02-27T07:30:17;0.10;97.60
39017;DHT22;24784;45.582;5.276;2023-02-27T07:32:42;0.20;97.30
39017;DHT22;24784;45.582;5.276;2023-02-27T07:35:09;0.10;96.90
39017;DHT22;24784;45.582;5.276;2023-02-27T07:37:34;0.20;96.90
39017;DHT22;24784;45.582;5.276;2023-02-27T07:40:00;0.30;96.70
39017;DHT22;24784;45.582;5.276;2023-02-27T07:42:26;0.30;96.40
39017;DHT22;24784;45.582;5.276;2023-02-27T07:44:52;0.30;96.70
39017;DHT22;24784;45.582;5.276;2023-02-27T07:47:17;0.20;96.60
39017;DHT22;24784;45.582;5.276;2023-02-27T07:49:43;0.20;96.50
39017;DHT22;24784;45.582;5.276;2023-02-27T07:52:09;0.30;96.70
39017;DHT22;24784;45.582;5.276;2023-02-27T07:54:35;0.30;96.70
39017;DHT22;24784;45.582;5.276;2023-02-27T07:57:05;0.30;96.80
39017;DHT22;24784;45.582;5.276;2023-02-27T07:59:31;0.40;96.70
39017;DHT22;24784;45.582;5.276;2023-02-27T08:01:57;0.40;96.60
39017;DHT22;24784;45.582;5.276;2023-02-27T08:04:22;0.40;96.60
39017;DHT22;24784;45.582;5.276;2023-02-27T08:06:48;0.40;96.60
39017;DHT22;24784;45.582;5.276;2023-02-27T08:09:14;0.50;96.90
39017;DHT22;24784;45.582;5.276;2023-02-27T08:11:40;0.40;96.30
39017;DHT22;24784;45.582;5.276;2023-02-27T08:14:06;0.60;96.50
39017;DHT22;24784;45.582;5.276;2023-02-27T08:16:32;0.70;96.20
39017;DHT22;24784;45.582;5.276;2023-02-27T08:18:59;0.70;96.40
39017;DHT22;24784;45.582;5.276;2023-02-27T08:21:25;0.70;96.30
39017;DHT22;24784;45.582;5.276;2023-02-27T08:23:51;0.60;96.30
39017;DHT22;24784;45.582;5.276;2023-02-27T08:26:17;0.60;95.90
39017;DHT22;24784;45.582;5.276;2023-02-27T08:28:42;0.70;96.00
39017;DHT22;24784;45.582;5.276;2023-02-27T08:31:09;0.80;96.00
39017;DHT22;24784;45.582;5.276;2023-02-27T08:33:34;0.80;95.60
39017;DHT22;24784;45.582;5.276;2023-02-27T08:36:00;0.90;95.60
39017;DHT22;24784;45.582;5.276;2023-02-27T08:38:26;0.90;95.90
39017;DHT22;24784;45.582;5.276;2023-02-27T08:40:52;1.00;95.50
39017;DHT22;24784;45.582;5.276;2023-02-27T08:43:19;1.10;95.40
39017;DHT22;24784;45.582;5.276;2023-02-27T08:45:46;1.30;95.70
39017;DHT22;24784;45.582;5.276;2023-02-27T08:48:11;1.40;95.50
39017;DHT22;24784;45.582;5.276;2023-02-27T08:50:40;1.50;95.10
39017;DHT22;24784;45.582;5.276;2023-02-27T08:53:06;1.50;95.30
39017;DHT22;24784;45.582;5.276;2023-02-27T08:55:32;1.60;95.30
39017;DHT22;24784;45.582;5.276;2023-02-27T08:57:58;1.60;94.70
39017;DHT22;24784;45.582;5.276;2023-02-27T09:00:23;1.60;95.00
39017;DHT22;24784;45.582;5.276;2023-02-27T09:02:49;1.80;95.00
39017;DHT22;24784;45.582;5.276;2023-02-27T09:05:15;1.90;94.60
39017;DHT22;24784;45.582;5.276;2023-02-27T09:07:41;2.10;94.30
39017;DHT22;24784;45.582;5.276;2023-02-27T09:10:08;2.40;94.50
39017;DHT22;24784;45.582;5.276;2023-02-27T09:12:34;3.00;95.10
39017;DHT22;24784;45.582;5.276;2023-02-27T09:14:59;3.60;94.70
39017;DHT22;24784;45.582;5.276;2023-02-27T09:17:25;3.90;93.30
39017;DHT22;24784;45.582;5.276;2023-02-27T09:19:51;3.90;93.10
39017;DHT22;24784;45.582;5.276;2023-02-27T09:22:17;3.70;92.80
39017;DHT22;24784;45.582;5.276;2023-02-27T09:24:44;3.70;92.70
39017;DHT22;24784;45.582;5.276;2023-02-27T09:27:10;4.10;92.60
39017;DHT22;24784;45.582;5.276;2023-02-27T09:29:35;4.70;93.00
39017;DHT22;24784;45.582;5.276;2023-02-27T09:32:01;4.90;91.30
39017;DHT22;24784;45.582;5.276;2023-02-27T09:34:27;4.90;91.20
39017;DHT22;24784;45.582;5.276;2023-02-27T09:36:57;5.00;91.10
39017;DHT22;24784;45.582;5.276;2023-02-27T09:39:23;5.40;91.90
39017;DHT22;24784;45.582;5.276;2023-02-27T09:42:03;5.80;91.40
39017;DHT22;24784;45.582;5.276;2023-02-27T09:44:42;6.10;90.60
39017;DHT22;24784;45.582;5.276;2023-02-27T09:52:23;5.90;88.60
39017;DHT22;24784;45.582;5.276;2023-02-27T09:54:49;6.10;89.30
39017;DHT22;24784;45.582;5.276;2023-02-27T10:05:48;5.90;89.20
39017;DHT22;24784;45.582;5.276;2023-02-27T10:08:29;5.90;87.00
39017;DHT22;24784;45.582;5.276;2023-02-27T10:11:07;5.60;88.20
39017;DHT22;24784;45.582;5.276;2023-02-27T10:16:20;5.50;90.00
39017;DHT22;24784;45.582;5.276;2023-02-27T10:18:56;5.30;90.10
39017;DHT22;24784;45.582;5.276;2023-02-27T10:24:00;5.60;90.20
39017;DHT22;24784;45.582;5.276;2023-02-27T10:26:36;5.90;88.70
39017;DHT22;24784;45.582;5.276;2023-02-27T10:32:04;5.70;88.70
39017;DHT22;24784;45.582;5.276;2023-02-27T10:34:32;5.80;89.10
39017;DHT22;24784;45.582;5.276;2023-02-27T10:37:01;5.70;89.30
39017;DHT22;24784;45.582;5.276;2023-02-27T10:39:29;6.00;87.70
39017;DHT22;24784;45.582;5.276;2023-02-27T10:42:01;6.10;89.00
39017;DHT22;24784;45.582;5.276;2023-02-27T10:44:28;5.90;87.60
39017;DHT22;24784;45.582;5.276;2023-02-27T10:46:53;6.10;87.80
39017;DHT22;24784;45.582;5.276;2023-02-27T10:49:20;6.00;88.20
39017;DHT22;24784;45.582;5.276;2023-02-27T10:52:10;6.30;88.90
39017;DHT22;24784;45.582;5.276;2023-02-27T10:54:38;6.50;87.60
39017;DHT22;24784;45.582;5.276;2023-02-27T10:59:57;6.20;88.00
39017;DHT22;24784;45.582;5.276;2023-02-27T11:02:42;6.40;89.10
39017;DHT22;24784;45.582;5.276;2023-02-27T11:05:27;6.60;87.40
39017;DHT22;24784;45.582;5.276;2023-02-27T11:07:56;6.40;86.00
39017;DHT22;24784;45.582;5.276;2023-02-27T11:10:33;6.20;88.10
39017;DHT22;24784;45.582;5.276;2023-02-27T11:13:02;5.90;87.40
39017;DHT22;24784;45.582;5.276;2023-02-27T11:15:34;5.80;88.90
39017;DHT22;24784;45.582;5.276;2023-02-27T11:18:20;6.20;89.80
39017;DHT22;24784;45.582;5.276;2023-02-27T11:20:49;6.00;89.00
39017;DHT22;24784;45.582;5.276;2023-02-27T11:23:24;5.90;88.10
39017;DHT22;24784;45.582;5.276;2023-02-27T11:25:50;6.00;89.10
39017;DHT22;24784;45.582;5.276;2023-02-27T11:28:33;6.30;88.70
39017;DHT22;24784;45.582;5.276;2023-02-27T11:31:04;6.60;88.20
39017;DHT22;24784;45.582;5.276;2023-02-27T11:33:34;6.30;86.50
39017;DHT22;24784;45.582;5.276;2023-02-27T11:36:03;6.40;87.60
39017;DHT22;24784;45.582;5.276;2023-02-27T11:38:30;6.40;87.70
39017;DHT22;24784;45.582;5.276;2023-02-27T11:41:02;6.40;87.30
39017;DHT22;24784;45.582;5.276;2023-02-27T11:43:46;6.50;87.40
39017;DHT22;24784;45.582;5.276;2023-02-27T11:46:19;6.30;87.20
39017;DHT22;24784;45.582;5.276;2023-02-27T11:54:34;5.60;86.30
39017;DHT22;24784;45.582;5.276;2023-02-27T11:57:23;6.10;88.80
39017;DHT22;24784;45.582;5.276;2023-02-27T12:00:06;6.80;88.90
39017;DHT22;24784;45.582;5.276;2023-02-27T12:02:57;6.70;85.20
39017;DHT22;24784;45.582;5.276;2023-02-27T12:05:32;6.70;86.00
39017;DHT22;24784;45.582;5.276;2023-02-27T12:08:17;7.10;87.40
39017;DHT22;24784;45.582;5.276;2023-02-27T12:13:18;7.60;82.90
39017;DHT22;24784;45.582;5.276;2023-02-27T12:21:45;7.60;85.20
39017;DHT22;24784;45.582;5.276;2023-02-27T12:24:24;7.60;85.60
39017;DHT22;24784;45.582;5.276;2023-02-27T12:27:00;7.80;85.70
39017;DHT22;24784;45.582;5.276;2023-02-27T12:29:38;8.30;86.00
39017;DHT22;24784;45.582;5.276;2023-02-27T12:32:38;8.00;82.50
39017;DHT22;24784;45.582;5.276;2023-02-27T12:35:15;8.10;83.80
39017;DHT22;24784;45.582;5.276;2023-02-27T12:37:41;8.30;84.00
39017;DHT22;24784;45.582;5.276;2023-02-27T12:40:15;8.70;84.80
39017;DHT22;24784;45.582;5.276;2023-02-27T12:48:59;8.50;82.50
39017;DHT22;24784;45.582;5.276;2023-02-27T12:59:46;8.30;81.30
39017;DHT22;24784;45.582;5.276;2023-02-27T13:02:27;8.10;82.10
39017;DHT22;24784;45.582;5.276;2023-02-27T13:10:44;8.00;81.50
39017;DHT22;24784;45.582;5.276;2023-02-27T13:13:25;8.00;81.90
39017;DHT22;24784;45.582;5.276;2023-02-27T13:15:57;7.60;82.60
39017;DHT22;24784;45.582;5.276;2023-02-27T13:26:45;7.50;82.00
39017;DHT22;24784;45.582;5.276;2023-02-27T13:29:17;7.30;83.20
39017;DHT22;24784;45.582;5.276;2023-02-27T13:31:46;7.80;83.70
39017;DHT22;24784;45.582;5.276;2023-02-27T13:34:42;7.80;81.70
39017;DHT22;24784;45.582;5.276;2023-02-27T13:37:09;7.80;82.30
39017;DHT22;24784;45.582;5.276;2023-02-27T13:45:03;7.70;83.00
39017;DHT22;24784;45.582;5.276;2023-02-27T13:47:37;7.60;83.50
39017;DHT22;24784;45.582;5.276;2023-02-27T13:52:50;7.50;83.30
39017;DHT22;24784;45.582;5.276;2023-02-27T13:55:30;7.50;83.70
39017;DHT22;24784;45.582;5.276;2023-02-27T13:58:00;7.50;83.70
39017;DHT22;24784;45.582;5.276;2023-02-27T14:00:28;7.40;83.00
39017;DHT22;24784;45.582;5.276;2023-02-27T14:03:19;7.20;84.00
39017;DHT22;24784;45.582;5.276;2023-02-27T14:05:47;7.50;84.40
39017;DHT22;24784;45.582;5.276;2023-02-27T14:10:58;7.60;84.20
39017;DHT22;24784;45.582;5.276;2023-02-27T14:22:00;7.60;83.60
39017;DHT22;24784;45.582;5.276;2023-02-27T14:24:53;7.50;83.50
39017;DHT22;24784;45.582;5.276;2023-02-27T14:27:29;7.40;84.10
39017;DHT22;24784;45.582;5.276;2023-02-27T14:30:00;7.50;84.00
39017;DHT22;24784;45.582;5.276;2023-02-27T14:32:34;7.60;85.00
39017;DHT22;24784;45.582;5.276;2023-02-27T14:35:04;7.70;84.10
39017;DHT22;24784;45.582;5.276;2023-02-27T14:37:30;7.60;83.40
39017;DHT22;24784;45.582;5.276;2023-02-27T14:39:57;7.80;84.70
39017;DHT22;24784;45.582;5.276;2023-02-27T14:45:22;7.90;83.70
39017;DHT22;24784;45.582;5.276;2023-02-27T14:47:50;7.90;82.80
39017;DHT22;24784;45.582;5.276;2023-02-27T14:50:27;8.00;83.10
39017;DHT22;24784;45.582;5.276;2023-02-27T14:52:54;7.80;81.60
39017;DHT22;24784;45.582;5.276;2023-02-27T14:55:26;7.90;83.30
39017;DHT22;24784;45.582;5.276;2023-02-27T14:57:56;7.90;82.60
39017;DHT22;24784;45.582;5.276;2023-02-27T15:00:55;8.00;83.60
39017;DHT22;24784;45.582;5.276;2023-02-27T15:05:57;7.70;82.80
39017;DHT22;24784;45.582;5.276;2023-02-27T15:08:37;7.80;82.40
39017;DHT22;24784;45.582;5.276;2023-02-27T15:11:04;7.60;82.60
39017;DHT22;24784;45.582;5.276;2023-02-27T15:13:37;7.70;83.00
39017;DHT22;24784;45.582;5.276;2023-02-27T15:19:00;7.60;83.20
39017;DHT22;24784;45.582;5.276;2023-02-27T15:21:30;7.40;83.60
39017;DHT22;24784;45.582;5.276;2023-02-27T15:23:58;7.50;84.30
39017;DHT22;24784;45.582;5.276;2023-02-27T15:26:26;7.40;83.80
39017;DHT22;24784;45.582;5.276;2023-02-27T15:28:54;7.40;84.50
39017;DHT22;24784;45.582;5.276;2023-02-27T15:31:22;7.40;83.40
39017;DHT22;24784;45.582;5.276;2023-02-27T15:33:49;7.30;82.90
39017;DHT22;24784;45.582;5.276;2023-02-27T15:36:34;7.20;82.90
39017;DHT22;24784;45.582;5.276;2023-02-27T15:39:15;7.20;83.40
39017;DHT22;24784;45.582;5.276;2023-02-27T15:42:04;7.30;84.80
39017;DHT22;24784;45.582;5.276;2023-02-27T15:44:35;7.20;83.40
39017;DHT22;24784;45.582;5.276;2023-02-27T15:47:03;7.10;85.00
39017;DHT22;24784;45.582;5.276;2023-02-27T15:49:29;7.10;85.00
39017;DHT22;24784;45.582;5.276;2023-02-27T15:52:26;7.00;84.40
39017;DHT22;24784;45.582;5.276;2023-02-27T15:54:58;7.00;85.50
39017;DHT22;24784;45.582;5.276;2023-02-27T15:57:24;7.00;85.00
39017;DHT22;24784;45.582;5.276;2023-02-27T15:59:51;6.90;85.90
39017;DHT22;24784;45.582;5.276;2023-02-27T16:02:30;6.90;85.80
39017;DHT22;24784;45.582;5.276;2023-02-27T16:04:58;6.80;85.90
39017;DHT22;24784;45.582;5.276;2023-02-27T16:07:25;6.80;86.50
39017;DHT22;24784;45.582;5.276;2023-02-27T16:10:04;6.70;86.40
39017;DHT22;24784;45.582;5.276;2023-02-27T16:12:36;6.70;85.90
39017;DHT22;24784;45.582;5.276;2023-02-27T16:15:32;6.70;86.20
39017;DHT22;24784;45.582;5.276;2023-02-27T16:20:46;6.40;86.20
39017;DHT22;24784;45.582;5.276;2023-02-27T16:23:23;6.30;85.70
39017;DHT22;24784;45.582;5.276;2023-02-27T16:29:04;6.10;86.30
39017;DHT22;24784;45.582;5.276;2023-02-27T16:31:36;6.10;87.20
39017;DHT22;24784;45.582;5.276;2023-02-27T16:34:23;6.10;87.40
39017;DHT22;24784;45.582;5.276;2023-02-27T16:36:56;6.10;87.20
39017;DHT22;24784;45.582;5.276;2023-02-27T16:39:22;6.00;88.30
39017;DHT22;24784;45.582;5.276;2023-02-27T16:41:48;5.90;88.50
39017;DHT22;24784;45.582;5.276;2023-02-27T16:44:14;5.90;88.60
39017;DHT22;24784;45.582;5.276;2023-02-27T16:46:40;5.90;89.10
39017;DHT22;24784;45.582;5.276;2023-02-27T16:49:20;5.80;88.60
39017;DHT22;24784;45.582;5.276;2023-02-27T16:51:47;5.70;89.70
39017;DHT22;24784;45.582;5.276;2023-02-27T16:54:13;5.70;89.30
39017;DHT22;24784;45.582;5.276;2023-02-27T16:56:40;5.70;89.50
39017;DHT22;24784;45.582;5.276;2023-02-27T16:59:06;5.60;89.80
39017;DHT22;24784;45.582;5.276;2023-02-27T17:01:31;5.50;89.70
39017;DHT22;24784;45.582;5.276;2023-02-27T17:03:57;5.60;90.10
39017;DHT22;24784;45.582;5.276;2023-02-27T17:06:24;5.40;90.00
39017;DHT22;24784;45.582;5.276;2023-02-27T17:08:49;5.30;90.20
39017;DHT22;24784;45.582;5.276;2023-02-27T17:11:15;5.30;90.40
39017;DHT22;24784;45.582;5.276;2023-02-27T17:13:41;5.30;90.50
39017;DHT22;24784;45.582;5.276;2023-02-27T17:16:07;5.30;90.40
39017;DHT22;24784;45.582;5.276;2023-02-27T17:18:33;5.30;90.30
39017;DHT22;24784;45.582;5.276;2023-02-27T17:21:00;5.30;90.40
39017;DHT22;24784;45.582;5.276;2023-02-27T17:23:25;5.20;90.30
39017;DHT22;24784;45.582;5.276;2023-02-27T17:25:52;5.20;90.40
39017;DHT22;24784;45.582;5.276;2023-02-27T17:28:19;5.10;90.70
39017;DHT22;24784;45.582;5.276;2023-02-27T17:30:45;5.10;90.50
39017;DHT22;24784;45.582;5.276;2023-02-27T17:33:10;5.00;90.60
39017;DHT22;24784;45.582;5.276;2023-02-27T17:35:36;5.10;91.10
39017;DHT22;24784;45.582;5.276;2023-02-27T17:38:02;5.10;90.70
39017;DHT22;24784;45.582;5.276;2023-02-27T17:40:27;5.00;90.90
39017;DHT22;24784;45.582;5.276;2023-02-27T17:42:53;5.00;90.90
39017;DHT22;24784;45.582;5.276;2023-02-27T17:45:19;4.90;90.80
39017;DHT22;24784;45.582;5.276;2023-02-27T17:47:46;4.90;90.90
39017;DHT22;24784;45.582;5.276;2023-02-27T17:50:12;4.80;90.70
39017;DHT22;24784;45.582;5.276;2023-02-27T17:52:38;4.80;90.80
39017;DHT22;24784;45.582;5.276;2023-02-27T17:55:04;4.80;91.00
39017;DHT22;24784;45.582;5.276;2023-02-27T17:57:33;4.90;91.00
39017;DHT22;24784;45.582;5.276;2023-02-27T18:00:00;4.90;91.20
39017;DHT22;24784;45.582;5.276;2023-02-27T18:02:26;4.90;91.00
39017;DHT22;24784;45.582;5.276;2023-02-27T18:04:52;4.80;91.00
39017;DHT22;24784;45.582;5.276;2023-02-27T18:07:18;4.70;91.00
39017;DHT22;24784;45.582;5.276;2023-02-27T18:09:44;4.70;91.10
39017;DHT22;24784;45.582;5.276;2023-02-27T18:12:12;4.60;90.90
39017;DHT22;24784;45.582;5.276;2023-02-27T18:14:37;4.50;90.90
39017;DHT22;24784;45.582;5.276;2023-02-27T18:17:03;4.50;91.10
39017;DHT22;24784;45.582;5.276;2023-02-27T18:19:31;4.50;91.00
39017;DHT22;24784;45.582;5.276;2023-02-27T18:21:57;4.30;90.90
39017;DHT22;24784;45.582;5.276;2023-02-27T18:24:22;4.30;91.30
39017;DHT22;24784;45.582;5.276;2023-02-27T18:26:48;4.30;91.40
39017;DHT22;24784;45.582;5.276;2023-02-27T18:29:14;4.30;91.20
39017;DHT22;24784;45.582;5.276;2023-02-27T18:31:43;4.30;91.40
39017;DHT22;24784;45.582;5.276;2023-02-27T18:34:09;4.30;91.30
39017;DHT22;24784;45.582;5.276;2023-02-27T18:36:36;4.30;91.60
39017;DHT22;24784;45.582;5.276;2023-02-27T18:39:03;4.30;91.40
39017;DHT22;24784;45.582;5.276;2023-02-27T18:41:29;4.20;91.00
39017;DHT22;24784;45.582;5.276;2023-02-27T18:43:56;4.10;91.10
39017;DHT22;24784;45.582;5.276;2023-02-27T18:46:23;4.10;91.40
39017;DHT22;24784;45.582;5.276;2023-02-27T18:48:49;4.10;91.40
39017;DHT22;24784;45.582;5.276;2023-02-27T18:51:16;4.10;91.30